createdAt,value
2022-11-21T05:01:10.254Z,88.90
2022-11-21T05:03:39.704Z,85.40
2022-11-21T05:06:08.842Z,91.70
2022-11-21T05:08:38.398Z,87.40
2022-11-21T05:11:26.631Z,81.20
2022-11-21T05:13:56.232Z,85.40
2022-11-21T05:16:25.471Z,83.60
2022-11-21T05:18:55.006Z,79.50
2022-11-21T05:21:24.329Z,86.20
2022-11-21T05:23:54.010Z,84.90
2022-11-21T05:26:23.262Z,89.80
2022-11-21T05:28:52.526Z,165.10
2022-11-21T05:31:21.868Z,90.00
2022-11-21T05:33:51.208Z,85.30
2022-11-21T05:36:20.559Z,102.90
2022-11-21T05:38:50.144Z,92.00
2022-11-21T05:41:19.479Z,102.30
2022-11-21T05:43:49.324Z,93.80
2022-11-21T05:46:23.219Z,110.70
2022-11-21T05:48:54.614Z,111.60
2022-11-21T05:51:23.888Z,104.90
2022-11-21T05:53:53.424Z,87.00
2022-11-21T05:56:22.573Z,90.30
2022-11-21T05:58:52.075Z,106.30
2022-11-21T06:01:41.968Z,90.70
2022-11-21T06:04:12.433Z,88.80
2022-11-21T06:06:42.344Z,87.00
2022-11-21T06:09:11.939Z,87.20
2022-11-21T06:11:41.501Z,90.70
2022-11-21T06:14:10.919Z,85.90
2022-11-21T06:16:39.538Z,95.00
2022-11-21T06:19:08.892Z,89.20
2022-11-21T06:21:37.483Z,125.90
2022-11-21T06:24:08.449Z,125.40
2022-11-21T06:26:38.260Z,119.20
2022-11-21T06:29:06.815Z,146.40
2022-11-21T06:31:35.760Z,141.60
2022-11-21T06:34:05.659Z,191.30
2022-11-21T06:36:35.839Z,182.20
2022-11-21T06:39:05.332Z,140.20
2022-11-21T06:41:34.549Z,156.30
2022-11-21T06:44:03.493Z,143.60
2022-11-21T06:46:32.579Z,164.80
2022-11-21T06:49:01.605Z,210.80
2022-11-21T06:51:31.254Z,157.10
2022-11-21T06:54:01.718Z,112.70
2022-11-21T06:56:33.291Z,100.40
2022-11-21T06:59:01.856Z,95.80
2022-11-21T07:01:31.271Z,98.70
2022-11-21T07:04:01.642Z,93.40
2022-11-21T07:06:32.681Z,88.40
2022-11-21T07:12:17.870Z,96.30
2022-11-21T07:14:47.283Z,119.00
2022-11-21T07:17:16.837Z,103.40
2022-11-21T07:19:45.416Z,100.10
2022-11-21T07:22:14.412Z,124.70
2022-11-21T07:24:43.378Z,141.00
2022-11-21T07:27:13.025Z,98.80
2022-11-21T07:29:42.344Z,114.20
2022-11-21T07:32:11.534Z,93.20
2022-11-21T07:34:40.428Z,100.80
2022-11-21T07:37:09.886Z,94.10
2022-11-21T07:39:39.178Z,90.40
2022-11-21T07:42:07.623Z,83.10
2022-11-21T07:44:38.200Z,85.00
2022-11-21T07:47:07.109Z,81.70
2022-11-21T07:49:35.676Z,80.90
2022-11-21T07:52:04.663Z,80.90
2022-11-21T07:54:33.197Z,80.20
2022-11-21T07:57:01.748Z,90.20
2022-11-21T07:59:30.600Z,100.70
2022-11-21T08:01:59.383Z,89.80
2022-11-21T08:04:29.071Z,83.40
2022-11-21T08:06:58.192Z,90.30
2022-11-21T08:09:30.325Z,86.10
2022-11-21T08:11:59.008Z,85.90
2022-11-21T08:14:27.347Z,80.20
2022-11-21T08:16:55.865Z,98.10
2022-11-21T08:19:24.885Z,81.70
2022-11-21T08:21:53.637Z,78.80
2022-11-21T08:24:23.009Z,87.00
2022-11-21T08:26:52.567Z,82.40
2022-11-21T08:29:23.919Z,91.60
2022-11-21T08:31:53.153Z,83.80
2022-11-21T08:34:22.503Z,88.60
2022-11-21T08:36:52.134Z,79.70
2022-11-21T08:39:21.324Z,82.00
2022-11-21T08:42:06.078Z,89.60
2022-11-21T08:44:35.995Z,81.00
2022-11-21T08:47:07.140Z,90.70
2022-11-21T08:49:36.787Z,82.60
2022-11-21T08:52:06.257Z,84.20
2022-11-21T08:54:35.487Z,81.90
2022-11-21T08:57:05.129Z,83.90
2022-11-21T08:59:34.343Z,82.00
2022-11-21T09:02:02.967Z,83.00
2022-11-21T09:04:32.611Z,82.80
2022-11-21T09:07:02.635Z,79.20
2022-11-21T09:09:32.155Z,79.60
2022-11-21T09:12:03.393Z,86.40
2022-11-21T09:14:51.839Z,85.50
2022-11-21T09:17:40.087Z,77.10
2022-11-21T09:20:10.241Z,93.20
2022-11-21T09:22:39.630Z,79.70
2022-11-21T09:25:09.475Z,82.90
2022-11-21T09:27:38.799Z,83.30
2022-11-21T09:30:08.725Z,86.90
2022-11-21T09:32:38.197Z,78.90
2022-11-21T09:35:07.438Z,84.00
2022-11-21T09:37:39.744Z,80.80
2022-11-21T09:40:16.815Z,84.10
2022-11-21T09:43:03.339Z,80.50
2022-11-21T09:45:42.560Z,79.60
2022-11-21T09:48:24.731Z,84.60
2022-11-21T09:51:07.060Z,80.20
2022-11-21T09:53:59.002Z,83.50
2022-11-21T09:56:32.047Z,81.70
2022-11-21T09:59:31.212Z,78.60
2022-11-21T10:02:01.535Z,81.20
2022-11-21T10:04:32.430Z,75.90
2022-11-21T10:07:17.976Z,79.40
2022-11-21T10:10:05.683Z,82.50
2022-11-21T10:12:46.230Z,80.30
2022-11-21T10:15:39.093Z,79.40
2022-11-21T10:18:33.180Z,81.90
2022-11-21T10:21:05.921Z,80.80
2022-11-21T10:23:47.577Z,79.30
2022-11-21T10:26:39.289Z,77.80
2022-11-21T10:29:28.936Z,77.10
2022-11-21T10:32:03.757Z,82.70
2022-11-21T10:34:38.659Z,81.20
2022-11-21T10:37:38.076Z,80.10
2022-11-21T10:40:37.645Z,81.40
2022-11-21T10:43:50.795Z,82.80
2022-11-21T10:46:20.402Z,85.20
2022-11-21T10:49:00.103Z,83.30
2022-11-21T10:51:54.205Z,80.10
2022-11-21T10:54:35.742Z,82.50
2022-11-21T10:57:17.581Z,81.90
2022-11-21T11:00:01.432Z,82.50
2022-11-21T11:02:30.763Z,78.10
2022-11-21T11:05:23.708Z,76.50
2022-11-21T11:08:14.494Z,87.20
2022-11-21T11:11:06.431Z,84.20
2022-11-21T11:13:57.818Z,87.10
2022-11-21T11:16:28.955Z,89.30
2022-11-21T11:19:14.907Z,79.60
2022-11-21T11:21:46.393Z,84.90
2022-11-21T11:24:14.787Z,76.00
2022-11-21T11:27:01.225Z,85.00
2022-11-21T11:29:32.888Z,80.10
2022-11-21T11:32:04.659Z,85.10
2022-11-21T11:34:37.460Z,79.80
2022-11-21T11:37:17.318Z,80.40
2022-11-21T11:40:05.201Z,82.40
2022-11-21T11:43:18.563Z,88.20
2022-11-21T11:46:41.528Z,85.20
2022-11-21T11:49:55.829Z,84.90
2022-11-21T11:52:29.708Z,88.80
2022-11-21T11:55:08.426Z,83.20
2022-11-21T11:57:39.106Z,117.70
2022-11-21T12:00:48.150Z,89.10
2022-11-21T12:03:25.383Z,92.40
2022-11-21T12:06:09.761Z,112.40
2022-11-21T12:09:02.483Z,160.30
2022-11-21T12:12:08.606Z,220.60
2022-11-21T12:15:19.488Z,123.10
2022-11-21T12:18:18.281Z,112.00
2022-11-21T12:21:19.222Z,94.50
2022-11-21T12:23:52.142Z,93.00
2022-11-21T12:26:21.567Z,109.50
2022-11-21T12:29:01.007Z,108.50
2022-11-21T12:31:57.678Z,97.90
2022-11-21T12:34:44.988Z,112.70
2022-11-21T12:37:18.205Z,88.90
2022-11-21T12:40:00.960Z,97.80
2022-11-21T12:43:08.697Z,86.00
2022-11-21T12:46:01.447Z,119.10
2022-11-21T12:49:17.521Z,87.00
2022-11-21T12:52:52.195Z,128.70
2022-11-21T12:55:41.073Z,101.60
2022-11-21T12:58:33.441Z,82.70
2022-11-21T13:01:20.910Z,93.70
2022-11-21T13:04:23.368Z,88.20
2022-11-21T13:06:56.560Z,89.80
2022-11-21T13:09:28.849Z,101.60
2022-11-21T13:12:09.097Z,91.60
2022-11-21T13:15:00.630Z,89.20
2022-11-21T13:17:38.058Z,88.40
2022-11-21T13:20:46.702Z,98.70
2022-11-21T13:23:48.160Z,104.20
2022-11-21T13:26:26.897Z,102.80
2022-11-21T13:29:09.353Z,102.70
2022-11-21T13:31:42.164Z,90.20
2022-11-21T13:34:38.732Z,104.50
2022-11-21T13:37:09.602Z,102.40
2022-11-21T13:39:39.649Z,104.40
2022-11-21T13:42:29.229Z,93.20
2022-11-21T13:45:00.021Z,86.50
2022-11-21T13:47:32.336Z,92.20
2022-11-21T13:50:26.425Z,94.50
2022-11-21T13:53:24.771Z,114.10
2022-11-21T13:56:01.875Z,99.00
2022-11-21T13:58:55.851Z,162.30
2022-11-21T14:01:28.290Z,107.30
2022-11-21T14:04:19.127Z,95.70
2022-11-21T14:06:48.838Z,112.30
2022-11-21T14:09:23.115Z,95.30
2022-11-21T14:11:58.007Z,101.60
2022-11-21T14:14:39.539Z,165.50
2022-11-21T14:17:24.020Z,137.70
2022-11-21T14:19:56.613Z,99.30
2022-11-21T14:22:45.655Z,98.00
2022-11-21T14:25:20.419Z,92.40
2022-11-21T14:27:52.681Z,91.10
2022-11-21T14:30:33.370Z,87.30
2022-11-21T14:33:25.669Z,91.10
2022-11-21T14:35:55.061Z,86.70
2022-11-21T14:38:25.077Z,88.30
2022-11-21T14:41:13.410Z,87.10
2022-11-21T14:43:42.448Z,88.80
2022-11-21T14:46:16.704Z,89.30
2022-11-21T14:48:45.542Z,75.10
2022-11-21T14:51:20.313Z,89.70
2022-11-21T14:53:51.198Z,98.80
2022-11-21T14:56:26.128Z,88.70
2022-11-21T14:58:56.874Z,215.00
2022-11-21T15:01:28.965Z,121.70
2022-11-21T15:04:06.291Z,87.30
2022-11-21T15:06:43.493Z,79.90
2022-11-21T15:12:50.733Z,74.90
2022-11-21T15:15:29.144Z,85.70
2022-11-21T15:18:26.514Z,88.00
2022-11-21T15:20:56.457Z,84.50
2022-11-21T15:23:44.438Z,79.50
2022-11-21T15:26:55.605Z,77.50
2022-11-21T15:29:34.411Z,70.00
2022-11-21T15:32:16.534Z,72.10
2022-11-21T15:35:39.883Z,92.50
2022-11-21T15:38:24.476Z,82.10
2022-11-21T15:40:59.191Z,74.00
2022-11-21T15:43:39.484Z,77.00
2022-11-21T15:46:26.845Z,74.00
2022-11-21T15:49:25.154Z,71.90
2022-11-21T15:52:06.491Z,75.40
2022-11-21T15:54:36.642Z,126.90
2022-11-21T15:57:05.070Z,92.10
2022-11-21T15:59:33.724Z,68.90
2022-11-21T16:02:02.943Z,85.80
2022-11-21T16:04:31.996Z,70.60
2022-11-21T16:07:01.227Z,67.30
2022-11-21T16:09:30.978Z,73.40
2022-11-21T16:12:00.524Z,69.10
2022-11-21T16:14:29.732Z,66.70
2022-11-21T16:16:59.151Z,73.50
2022-11-21T16:19:28.788Z,71.00
2022-11-21T16:21:58.778Z,68.00
2022-11-21T16:24:28.101Z,69.90
2022-11-21T16:26:57.709Z,70.90
2022-11-21T16:29:27.292Z,67.80
2022-11-21T16:31:56.973Z,70.00
2022-11-21T16:34:27.929Z,68.70
2022-11-21T16:36:57.156Z,69.40
2022-11-21T16:39:25.950Z,69.70
2022-11-21T16:41:54.749Z,68.70
2022-11-21T16:44:23.678Z,65.70
2022-11-21T16:46:54.935Z,64.40
2022-11-21T16:49:25.113Z,64.70
2022-11-21T16:51:53.993Z,70.20
2022-11-21T16:54:22.557Z,66.00
2022-11-21T16:56:51.088Z,61.30
2022-11-21T16:59:19.557Z,63.60
2022-11-21T17:01:48.299Z,63.80
2022-11-21T17:04:17.610Z,63.60
2022-11-21T17:06:49.461Z,65.50
2022-11-21T17:09:18.036Z,66.40
2022-11-21T17:11:47.285Z,67.70
2022-11-21T17:14:16.905Z,67.30
2022-11-21T17:16:46.221Z,71.40
2022-11-21T17:19:16.419Z,68.40
2022-11-21T17:21:45.137Z,67.80
2022-11-21T17:24:14.292Z,84.80
2022-11-21T17:26:43.463Z,63.50
2022-11-21T17:29:13.218Z,64.30
2022-11-21T17:31:43.063Z,87.20
2022-11-21T17:34:12.158Z,70.70
2022-11-21T17:36:40.807Z,68.50
2022-11-21T17:39:15.401Z,61.90
2022-11-21T17:41:45.326Z,86.20
2022-11-21T17:44:18.039Z,169.00
2022-11-21T17:46:47.881Z,95.00
2022-11-21T17:49:16.694Z,82.60
2022-11-21T17:51:46.109Z,75.10
2022-11-21T17:54:15.512Z,66.70
2022-11-21T17:56:47.396Z,67.20
2022-11-21T17:59:20.996Z,74.90
2022-11-21T18:01:50.332Z,72.40
2022-11-21T18:04:19.942Z,64.80
2022-11-21T18:06:49.887Z,58.90
2022-11-21T18:09:19.644Z,65.50
2022-11-21T18:11:48.901Z,69.40
2022-11-21T18:14:19.588Z,75.30
2022-11-21T18:16:53.021Z,61.80
2022-11-21T18:19:23.498Z,65.90
2022-11-21T18:21:54.057Z,63.90
2022-11-21T18:24:22.882Z,67.50
2022-11-21T18:26:51.933Z,61.70
2022-11-21T18:29:38.705Z,62.00
2022-11-21T18:32:09.028Z,80.30
2022-11-21T18:34:41.194Z,71.80
2022-11-21T18:37:10.969Z,65.10
2022-11-21T18:39:40.139Z,71.60
2022-11-21T18:42:09.243Z,71.00
2022-11-21T18:44:38.960Z,63.70
2022-11-21T18:47:19.777Z,67.20
2022-11-21T18:49:49.873Z,63.20
2022-11-21T18:52:18.778Z,63.20
2022-11-21T18:54:47.426Z,65.60
2022-11-21T18:57:16.462Z,68.90
2022-11-21T18:59:45.165Z,63.20
2022-11-21T19:02:14.493Z,112.50
2022-11-21T19:04:43.782Z,65.40
2022-11-21T19:07:12.480Z,64.90
2022-11-21T19:09:41.927Z,65.30
2022-11-21T19:12:11.443Z,55.70
2022-11-21T19:14:40.111Z,63.00
2022-11-21T19:17:08.904Z,112.30
2022-11-21T19:19:38.048Z,66.70
2022-11-21T19:22:07.123Z,71.60
2022-11-21T19:24:35.979Z,71.10
2022-11-21T19:27:04.637Z,60.70
2022-11-21T19:29:33.494Z,62.30
2022-11-21T19:32:02.644Z,73.10
2022-11-21T19:34:33.101Z,74.40
2022-11-21T19:37:02.195Z,73.40
2022-11-21T19:39:31.602Z,80.20
2022-11-21T19:42:00.438Z,70.10
2022-11-21T19:44:29.597Z,59.80
2022-11-21T19:46:58.554Z,67.40
2022-11-21T19:49:28.193Z,69.70
2022-11-21T19:51:57.646Z,71.10
2022-11-21T19:54:26.938Z,66.80
2022-11-21T19:56:56.580Z,69.70
2022-11-21T19:59:25.815Z,71.90
2022-11-21T20:01:54.982Z,75.30
2022-11-21T20:04:24.503Z,77.60
2022-11-21T20:06:54.143Z,68.10
2022-11-21T20:09:23.803Z,66.60
2022-11-21T20:11:53.717Z,71.60
2022-11-21T20:14:26.250Z,66.00
2022-11-21T20:16:55.692Z,75.40
2022-11-21T20:19:25.458Z,75.20
2022-11-21T20:21:56.041Z,76.80
2022-11-21T20:24:25.099Z,77.40
2022-11-21T20:26:54.512Z,74.20
2022-11-21T20:29:23.683Z,64.30
2022-11-21T20:31:53.136Z,77.80
2022-11-21T20:34:22.571Z,80.30
2022-11-21T20:36:52.345Z,79.70
2022-11-21T20:39:22.107Z,92.90
2022-11-21T20:41:51.415Z,92.70
2022-11-21T20:47:11.484Z,97.90
2022-11-21T20:49:40.684Z,75.10
2022-11-21T20:55:00.015Z,65.40
2022-11-21T20:57:30.962Z,70.40
2022-11-21T21:00:00.305Z,78.90
2022-11-21T21:02:29.811Z,78.50
2022-11-21T21:04:59.281Z,86.30
2022-11-21T21:07:28.673Z,85.00
2022-11-21T21:09:59.477Z,82.90
2022-11-21T21:12:32.016Z,88.40
2022-11-21T21:15:01.644Z,81.40
2022-11-21T21:17:31.142Z,83.90
2022-11-21T21:20:00.764Z,81.30
2022-11-21T21:22:30.091Z,80.60
2022-11-21T21:24:59.477Z,90.70
2022-11-21T21:27:28.923Z,83.60
2022-11-21T21:29:58.219Z,66.10
2022-11-21T21:32:27.708Z,73.80
2022-11-21T21:35:00.031Z,73.00
2022-11-21T21:37:29.991Z,72.50
2022-11-21T21:40:03.973Z,68.60
2022-11-21T21:42:36.283Z,70.50
2022-11-21T21:45:05.676Z,66.80
2022-11-21T21:47:35.529Z,72.50
2022-11-21T21:50:09.178Z,81.30
2022-11-21T21:52:42.034Z,68.30
2022-11-21T21:55:11.340Z,66.60
2022-11-21T21:57:46.038Z,68.30
2022-11-21T22:04:14.490Z,98.00
2022-11-21T22:06:44.113Z,77.80
2022-11-21T22:09:16.144Z,71.80
2022-11-21T22:11:47.609Z,68.40
2022-11-21T22:14:18.924Z,71.60
2022-11-21T22:16:48.481Z,72.40
2022-11-21T22:19:18.715Z,69.70
2022-11-21T22:21:48.106Z,72.20
2022-11-21T22:24:26.836Z,74.90
2022-11-21T22:26:57.331Z,73.50
2022-11-21T22:29:27.201Z,77.30
2022-11-21T22:31:57.306Z,69.00
2022-11-21T22:34:27.742Z,72.00
2022-11-21T22:36:57.698Z,73.60
2022-11-21T22:39:27.963Z,114.70
2022-11-21T22:41:59.942Z,97.40
2022-11-21T22:44:30.383Z,79.90
2022-11-21T22:47:00.196Z,73.10
2022-11-21T22:49:29.579Z,69.70
2022-11-21T22:51:59.052Z,74.10
2022-11-21T22:54:28.623Z,79.10
2022-11-21T22:56:58.249Z,87.60
2022-11-21T22:59:27.526Z,70.30
2022-11-21T23:01:56.929Z,80.00
2022-11-21T23:04:32.114Z,75.30
2022-11-21T23:07:02.524Z,74.80
2022-11-21T23:09:36.934Z,68.30
2022-11-21T23:12:07.776Z,78.30
2022-11-21T23:14:37.927Z,69.60
2022-11-21T23:17:07.442Z,69.40
2022-11-21T23:19:36.915Z,66.40
2022-11-21T23:22:06.407Z,70.50
2022-11-21T23:24:35.639Z,70.70
2022-11-21T23:27:05.631Z,65.80
2022-11-21T23:29:34.761Z,69.20
2022-11-21T23:32:04.286Z,71.70
2022-11-21T23:34:33.421Z,68.40
2022-11-21T23:37:02.841Z,66.60
2022-11-21T23:39:32.351Z,69.80
2022-11-21T23:42:01.706Z,100.90
2022-11-21T23:44:31.113Z,103.10
2022-11-21T23:47:00.516Z,81.50
2022-11-21T23:49:29.903Z,67.20
2022-11-21T23:51:59.439Z,73.30
2022-11-21T23:54:28.786Z,74.30
2022-11-21T23:56:58.216Z,65.80
2022-11-21T23:59:27.571Z,77.50
